Terminal Aerodrome Forecast
Issued by NWS Tampa Bay Area, FL

Home | Current Version | Previous Version | Text Only | Print | Product List | Glossary On
Versions: 1 2 3 4 5 6 7 8 9 10 11 12 13 14 15 16 17 18 19 20 21 22 23 24 25 26 27
225
FTUS42 KTBW 301120
TAFTPA
TAF
KTPA 301120Z 3012/3112 VRB03KT P6SM FEW040 SCT080 BKN250
     FM301400 23006KT P6SM VCTS SCT035CB SCT060 BKN250
     FM301700 27007KT P6SM VCTS SCT025CB BKN070 BKN250
     FM310100 VRB03KT P6SM FEW035 SCT070 BKN250=

USA.gov is the U.S. government's official web portal to all federal, state and local government web resources and services.